createdAt,value
2023-05-10T00:01:12.948Z,100042.21
2023-05-10T00:03:39.479Z,100025.45
2023-05-10T00:06:06.131Z,100030.08
2023-05-10T00:08:32.598Z,100025.95
2023-05-10T00:10:59.009Z,100026.89
2023-05-10T00:13:25.636Z,100025.44
2023-05-10T00:15:52.164Z,100030.25
2023-05-10T00:18:18.593Z,100026.92
2023-05-10T00:20:46.968Z,100022.00
2023-05-10T00:23:13.717Z,100021.83
2023-05-10T00:25:40.149Z,100019.99
2023-05-10T00:28:06.630Z,100017.08
2023-05-10T00:30:33.200Z,100012.70
2023-05-10T00:32:59.674Z,100015.90
2023-05-10T00:35:27.015Z,100010.78
2023-05-10T00:37:53.466Z,100005.71
2023-05-10T00:40:19.913Z,100001.17
2023-05-10T00:42:46.400Z,100001.15
2023-05-10T00:45:13.024Z,99994.77
2023-05-10T00:47:40.283Z,99997.33
2023-05-10T00:50:07.556Z,99994.71
2023-05-10T00:52:34.173Z,99997.46
2023-05-10T00:55:01.178Z,99997.72
2023-05-10T00:57:28.009Z,99998.73
2023-05-10T00:59:54.575Z,99996.33
2023-05-10T01:02:21.057Z,99991.25
2023-05-10T01:04:48.298Z,99991.58
2023-05-10T01:07:14.855Z,99991.91
2023-05-10T01:09:41.401Z,99984.62
2023-05-10T01:12:08.648Z,99983.14
2023-05-10T01:14:37.421Z,99984.29
2023-05-10T01:17:06.085Z,99980.73
2023-05-10T01:19:35.972Z,99976.52
2023-05-10T01:22:14.402Z,99978.02
2023-05-10T01:25:12.154Z,99977.63
2023-05-10T01:27:47.731Z,99983.10
2023-05-10T01:30:39.235Z,99984.82
2023-05-10T01:33:15.056Z,99986.73
2023-05-10T01:35:48.846Z,99988.37
2023-05-10T01:38:18.210Z,99987.44
2023-05-10T01:41:07.907Z,99988.46
2023-05-10T01:43:43.098Z,99989.94
2023-05-10T01:46:13.894Z,99986.23
2023-05-10T01:48:48.073Z,99989.36
2023-05-10T01:51:20.599Z,99988.70
2023-05-10T01:53:49.772Z,99984.02
2023-05-10T01:56:17.914Z,99985.04
2023-05-10T01:58:48.351Z,99983.61
2023-05-10T02:01:16.298Z,99979.86
2023-05-10T02:03:44.650Z,99982.26
2023-05-10T02:06:13.680Z,99981.42
2023-05-10T02:08:41.053Z,99981.90
2023-05-10T02:11:08.968Z,99980.31
2023-05-10T02:13:38.167Z,99973.81
2023-05-10T02:16:06.327Z,99974.98
2023-05-10T02:18:34.645Z,99975.41
2023-05-10T02:21:02.746Z,99976.63
2023-05-10T02:23:30.287Z,99974.52
2023-05-10T02:25:59.017Z,99972.88
2023-05-10T02:28:28.376Z,99971.15
2023-05-10T02:30:56.237Z,99971.55
2023-05-10T02:33:23.470Z,99973.09
2023-05-10T02:35:51.815Z,99972.11
2023-05-10T02:38:21.241Z,99970.47
2023-05-10T02:40:48.869Z,99968.70
2023-05-10T02:43:17.413Z,99969.28
2023-05-10T02:45:44.924Z,99965.23
2023-05-10T02:48:11.470Z,99969.27
2023-05-10T02:50:42.985Z,99964.61
2023-05-10T02:53:18.458Z,99968.06
2023-05-10T02:55:50.124Z,99971.15
2023-05-10T02:58:16.619Z,99961.66
2023-05-10T03:00:43.127Z,99966.14
2023-05-10T03:03:09.636Z,99963.16
2023-05-10T03:05:36.085Z,99962.96
2023-05-10T03:08:05.137Z,99961.41
2023-05-10T03:10:33.547Z,99958.88
2023-05-10T03:13:08.658Z,99955.77
2023-05-10T03:16:03.726Z,99960.10
2023-05-10T03:19:12.889Z,99958.35
2023-05-10T03:21:45.520Z,99958.19
2023-05-10T03:24:13.590Z,99957.61
2023-05-10T03:26:41.336Z,99958.90
2023-05-10T03:29:10.369Z,99963.06
2023-05-10T03:31:37.014Z,99966.20
2023-05-10T03:34:03.620Z,99964.58
2023-05-10T03:36:30.158Z,99964.86
2023-05-10T03:38:56.653Z,99956.78
2023-05-10T03:41:23.077Z,99957.07
2023-05-10T03:43:49.827Z,99964.23
2023-05-10T03:46:16.253Z,99959.77
2023-05-10T03:48:43.004Z,99962.27
2023-05-10T03:51:09.494Z,99964.23
2023-05-10T03:53:36.545Z,99961.56
2023-05-10T03:56:03.125Z,99961.33
2023-05-10T03:58:29.662Z,99960.96
2023-05-10T04:00:56.336Z,99958.34
2023-05-10T04:03:23.111Z,99958.05
2023-05-10T04:05:49.673Z,99954.21
2023-05-10T04:08:17.588Z,99958.35
2023-05-10T04:10:44.442Z,99956.64
2023-05-10T04:13:11.206Z,99960.16
2023-05-10T04:15:37.624Z,99956.20
2023-05-10T04:18:05.579Z,99957.21
2023-05-10T04:20:34.172Z,99954.92
2023-05-10T04:23:00.829Z,99958.94
2023-05-10T04:25:27.218Z,99960.17
2023-05-10T04:27:53.622Z,99962.67
2023-05-10T04:30:20.165Z,99965.11
2023-05-10T04:32:46.718Z,99966.55
2023-05-10T04:35:13.254Z,99971.95
2023-05-10T04:37:39.801Z,99975.16
2023-05-10T04:40:07.133Z,99972.08
2023-05-10T04:42:34.067Z,99962.52
2023-05-10T04:45:00.651Z,99960.11
2023-05-10T04:47:27.461Z,99962.90
2023-05-10T04:49:53.915Z,99960.74
2023-05-10T04:52:20.565Z,99963.85
2023-05-10T04:54:46.984Z,99966.39
2023-05-10T04:57:13.431Z,99961.55
2023-05-10T04:59:40.036Z,99973.50
2023-05-10T05:02:06.791Z,99971.50
2023-05-10T05:04:33.363Z,99975.44
2023-05-10T05:06:59.929Z,99984.69
2023-05-10T05:09:26.373Z,99989.69
2023-05-10T05:11:52.887Z,99988.08
2023-05-10T05:14:21.719Z,99990.95
2023-05-10T05:16:48.392Z,100002.36
2023-05-10T05:19:14.959Z,100008.42
2023-05-10T05:21:41.517Z,100013.83
2023-05-10T05:24:09.037Z,100009.48
2023-05-10T05:26:35.705Z,100011.16
2023-05-10T05:29:02.476Z,100018.23
2023-05-10T05:31:29.054Z,100021.96
2023-05-10T05:33:56.419Z,100023.31
2023-05-10T05:36:23.187Z,100022.54
2023-05-10T05:38:49.674Z,100024.34
2023-05-10T05:41:16.332Z,100028.84
2023-05-10T05:43:42.835Z,100036.86
2023-05-10T05:46:09.387Z,100037.27
2023-05-10T05:48:36.333Z,100031.84
2023-05-10T05:51:03.434Z,100036.21
2023-05-10T05:53:31.177Z,100035.45
2023-05-10T05:55:59.582Z,100039.27
2023-05-10T05:58:26.962Z,100045.28
2023-05-10T06:00:54.278Z,100044.55
2023-05-10T06:03:21.203Z,100045.33
2023-05-10T06:05:48.259Z,100050.85
2023-05-10T06:08:14.774Z,100054.57
2023-05-10T06:10:41.200Z,100054.38
2023-05-10T06:13:07.781Z,100059.70
2023-05-10T06:15:34.347Z,100061.20
2023-05-10T06:18:00.999Z,100067.45
2023-05-10T06:20:27.952Z,100066.00
2023-05-10T06:22:54.460Z,100072.32
2023-05-10T06:25:21.152Z,100068.87
2023-05-10T06:27:51.760Z,100070.85
2023-05-10T06:30:20.020Z,100072.91
2023-05-10T06:32:47.150Z,100067.91
2023-05-10T06:35:13.866Z,100069.52
2023-05-10T06:37:40.790Z,100072.49
2023-05-10T06:40:07.873Z,100072.20
2023-05-10T06:42:34.276Z,100070.55
2023-05-10T06:45:00.966Z,100075.94
2023-05-10T06:47:27.473Z,100071.00
2023-05-10T06:49:53.947Z,100074.31
2023-05-10T06:52:20.524Z,100077.76
2023-05-10T06:54:47.314Z,100078.20
2023-05-10T06:57:27.688Z,100080.08
2023-05-10T06:59:58.448Z,100081.71
2023-05-10T07:02:24.941Z,100086.34
2023-05-10T07:04:52.934Z,100085.48
2023-05-10T07:07:19.910Z,100085.07
2023-05-10T07:09:46.778Z,100089.16
2023-05-10T07:12:15.285Z,100092.02
2023-05-10T07:14:42.826Z,100096.30
2023-05-10T07:17:09.481Z,100094.50
2023-05-10T07:19:36.364Z,100098.77
2023-05-10T07:22:02.854Z,100098.98
2023-05-10T07:24:29.599Z,100099.98
2023-05-10T07:26:56.153Z,100100.10
2023-05-10T07:29:22.662Z,100104.80
2023-05-10T07:31:49.195Z,100105.13
2023-05-10T07:34:15.964Z,100107.53
2023-05-10T07:36:42.699Z,100111.74
2023-05-10T07:39:09.524Z,100116.86
2023-05-10T07:41:36.289Z,100113.63
2023-05-10T07:44:02.853Z,100115.79
2023-05-10T07:46:29.573Z,100117.30
2023-05-10T07:48:56.510Z,100124.94
2023-05-10T07:51:23.188Z,100123.03
2023-05-10T07:53:50.463Z,100121.85
2023-05-10T07:56:24.109Z,100125.95
2023-05-10T07:58:50.641Z,100127.48
2023-05-10T08:01:17.133Z,100131.95
2023-05-10T08:03:43.891Z,100133.52
2023-05-10T08:06:10.535Z,100138.08
2023-05-10T08:08:37.027Z,100138.20
2023-05-10T08:11:04.584Z,100142.72
2023-05-10T08:13:32.401Z,100147.27
2023-05-10T08:15:59.360Z,100148.45
2023-05-10T08:18:26.123Z,100156.91
2023-05-10T08:20:52.648Z,100163.98
2023-05-10T08:23:19.231Z,100168.20
2023-05-10T08:25:45.938Z,100176.25
2023-05-10T08:28:12.382Z,100175.28
2023-05-10T08:30:39.463Z,100179.85
2023-05-10T08:33:06.004Z,100183.25
2023-05-10T08:35:34.148Z,100180.38
2023-05-10T08:38:00.733Z,100184.23
2023-05-10T08:40:27.872Z,100188.70
2023-05-10T08:43:09.980Z,100191.33
2023-05-10T08:45:42.883Z,100193.61
2023-05-10T08:48:11.240Z,100194.09
2023-05-10T08:50:39.281Z,100193.80
2023-05-10T08:53:10.342Z,100196.63
2023-05-10T08:55:41.192Z,100200.66
2023-05-10T08:58:08.133Z,100200.48
2023-05-10T09:00:36.009Z,100203.54
2023-05-10T09:03:05.121Z,100203.95
2023-05-10T09:05:32.051Z,100205.48
2023-05-10T09:08:01.449Z,100213.55
2023-05-10T09:10:29.036Z,100223.90
2023-05-10T09:12:59.389Z,100226.67
2023-05-10T09:15:26.788Z,100228.27
2023-05-10T09:17:53.904Z,100232.87
2023-05-10T09:20:20.617Z,100232.99
2023-05-10T09:22:47.576Z,100234.77
2023-05-10T09:25:16.525Z,100241.64
2023-05-10T09:27:48.004Z,100243.63
2023-05-10T09:30:26.627Z,100246.36
2023-05-10T09:32:53.717Z,100250.79
2023-05-10T09:35:22.734Z,100253.67
2023-05-10T09:37:52.370Z,100256.55
2023-05-10T09:40:20.932Z,100261.09
2023-05-10T09:42:59.223Z,100261.38
2023-05-10T09:45:28.037Z,100269.02
2023-05-10T09:47:54.944Z,100269.02
2023-05-10T09:50:22.276Z,100270.77
2023-05-10T09:53:00.033Z,100271.50
2023-05-10T09:55:39.088Z,100276.81
2023-05-10T09:58:10.482Z,100276.45
2023-05-10T10:00:39.276Z,100280.17
2023-05-10T10:03:06.805Z,100282.88
2023-05-10T10:05:35.857Z,100283.85
2023-05-10T10:08:05.373Z,100291.81
2023-05-10T10:10:32.981Z,100286.79
2023-05-10T10:13:00.624Z,100287.27
2023-05-10T10:15:27.807Z,100289.93
2023-05-10T10:17:54.952Z,100293.57
2023-05-10T10:20:23.611Z,100293.97
2023-05-10T10:22:50.408Z,100299.02
2023-05-10T10:25:19.194Z,100300.20
2023-05-10T10:27:55.015Z,100303.46
2023-05-10T10:30:46.976Z,100302.80
2023-05-10T10:33:40.734Z,100302.29
2023-05-10T10:36:08.085Z,100303.08
2023-05-10T10:39:02.116Z,100305.65
2023-05-10T10:41:31.695Z,100302.34
2023-05-10T10:44:34.439Z,100308.16
2023-05-10T10:47:04.630Z,100305.62
2023-05-10T10:49:42.965Z,100306.60
2023-05-10T10:52:21.439Z,100306.02
2023-05-10T10:55:00.051Z,100302.85
2023-05-10T10:57:27.671Z,100305.05
2023-05-10T11:00:21.995Z,100304.27
2023-05-10T11:03:19.499Z,100309.48
2023-05-10T11:05:50.332Z,100303.73
2023-05-10T11:08:46.051Z,100306.70
2023-05-10T11:11:15.826Z,100304.75
2023-05-10T11:13:50.056Z,100306.26
2023-05-10T11:16:21.540Z,100303.21
2023-05-10T11:19:06.021Z,100305.70
2023-05-10T11:21:33.698Z,100311.48
2023-05-10T11:24:02.035Z,100313.14
2023-05-10T11:26:33.676Z,100313.76
2023-05-10T11:29:01.675Z,100314.90
2023-05-10T11:31:29.163Z,100315.03
2023-05-10T11:33:57.563Z,100310.02
2023-05-10T11:36:34.261Z,100311.23
2023-05-10T11:39:00.859Z,100315.87
2023-05-10T11:41:29.765Z,100315.54
2023-05-10T11:43:57.450Z,100312.67
2023-05-10T11:46:27.740Z,100308.55
2023-05-10T11:49:01.601Z,100310.73
2023-05-10T11:51:28.511Z,100314.94
2023-05-10T11:53:56.121Z,100316.70
2023-05-10T11:56:22.890Z,100319.16
2023-05-10T11:58:57.186Z,100321.52
2023-05-10T12:01:27.823Z,100318.41
2023-05-10T12:04:00.765Z,100314.92
2023-05-10T12:06:29.567Z,100317.95
2023-05-10T12:08:56.318Z,100316.27
2023-05-10T12:11:26.523Z,100313.84
2023-05-10T12:13:54.062Z,100316.05
2023-05-10T12:16:22.403Z,100316.77
2023-05-10T12:18:58.978Z,100315.18
2023-05-10T12:21:26.544Z,100315.33
2023-05-10T12:23:55.440Z,100316.09
2023-05-10T12:26:27.270Z,100315.19
2023-05-10T12:29:12.125Z,100317.16
2023-05-10T12:31:56.381Z,100318.59
2023-05-10T12:34:37.023Z,100324.29
2023-05-10T12:37:04.504Z,100320.41
2023-05-10T12:39:41.064Z,100324.88
2023-05-10T12:42:07.649Z,100325.02
2023-05-10T12:44:34.442Z,100324.73
2023-05-10T12:47:00.906Z,100324.89
2023-05-10T12:49:27.488Z,100328.05
2023-05-10T12:51:54.025Z,100332.00
2023-05-10T12:54:20.510Z,100332.78
2023-05-10T12:56:47.101Z,100337.08
2023-05-10T12:59:13.521Z,100339.92
2023-05-10T13:01:40.067Z,100345.55
2023-05-10T13:04:06.615Z,100348.91
2023-05-10T13:06:33.063Z,100343.68
2023-05-10T13:08:59.517Z,100344.77
2023-05-10T13:11:26.063Z,100348.83
2023-05-10T13:13:52.635Z,100351.27
2023-05-10T13:16:19.238Z,100353.60
2023-05-10T13:18:45.784Z,100353.44
2023-05-10T13:21:12.301Z,100353.94
2023-05-10T13:23:38.689Z,100348.95
2023-05-10T13:26:05.515Z,100352.74
2023-05-10T13:28:32.100Z,100351.04
2023-05-10T13:30:58.659Z,100345.80
2023-05-10T13:33:25.180Z,100343.41
2023-05-10T13:35:53.185Z,100348.77
2023-05-10T13:38:22.390Z,100351.95
2023-05-10T13:40:49.088Z,100356.25
2023-05-10T13:43:16.199Z,100353.23
2023-05-10T13:45:42.956Z,100354.84
2023-05-10T13:48:09.534Z,100352.29
2023-05-10T13:50:36.141Z,100349.82
2023-05-10T13:53:02.688Z,100353.10
2023-05-10T13:55:29.687Z,100352.27
2023-05-10T13:57:56.318Z,100351.30
2023-05-10T14:00:22.788Z,100351.39
2023-05-10T14:02:49.411Z,100351.45
2023-05-10T14:05:17.062Z,100351.21
2023-05-10T14:07:44.710Z,100353.52
2023-05-10T14:10:11.425Z,100350.09
2023-05-10T14:12:37.978Z,100350.52
2023-05-10T14:15:06.808Z,100352.30
2023-05-10T14:17:33.358Z,100351.89
2023-05-10T14:19:59.870Z,100350.61
2023-05-10T14:22:26.401Z,100352.09
2023-05-10T14:24:52.918Z,100353.04
2023-05-10T14:27:19.517Z,100352.08
2023-05-10T14:29:46.168Z,100349.52
2023-05-10T14:32:12.877Z,100349.41
2023-05-10T14:34:39.470Z,100349.88
2023-05-10T14:37:06.097Z,100348.19
2023-05-10T14:39:32.734Z,100351.55
2023-05-10T14:41:59.533Z,100357.38
2023-05-10T14:44:26.058Z,100358.73
2023-05-10T14:46:52.914Z,100360.67
2023-05-10T14:49:19.373Z,100367.05
2023-05-10T14:51:46.612Z,100372.51
2023-05-10T14:54:13.075Z,100377.11
2023-05-10T14:56:39.605Z,100376.40
2023-05-10T14:59:06.232Z,100381.07
2023-05-10T15:01:34.006Z,100381.99
2023-05-10T15:04:01.072Z,100380.29
2023-05-10T15:06:32.833Z,100384.17
2023-05-10T15:08:59.547Z,100386.04
2023-05-10T15:11:26.242Z,100390.89
2023-05-10T15:13:52.784Z,100387.98
2023-05-10T15:16:19.409Z,100386.86
2023-05-10T15:18:46.328Z,100387.75
2023-05-10T15:21:13.690Z,100389.21
2023-05-10T15:23:40.697Z,100389.98
2023-05-10T15:26:07.303Z,100393.82
2023-05-10T15:28:34.348Z,100394.00
2023-05-10T15:31:01.735Z,100396.52
2023-05-10T15:33:28.485Z,100395.98
2023-05-10T15:35:55.199Z,100398.19
2023-05-10T15:38:21.846Z,100400.41
2023-05-10T15:40:48.669Z,100403.13
2023-05-10T15:43:16.120Z,100404.73
2023-05-10T15:45:42.810Z,100404.81
2023-05-10T15:48:09.439Z,100407.60
2023-05-10T15:50:35.935Z,100409.07
2023-05-10T15:53:02.460Z,100413.42
2023-05-10T15:55:28.940Z,100416.69
2023-05-10T15:57:55.637Z,100421.08
2023-05-10T16:00:22.212Z,100422.97
2023-05-10T16:02:49.104Z,100428.67
2023-05-10T16:05:16.925Z,100432.81
2023-05-10T16:07:44.026Z,100436.14
2023-05-10T16:10:11.448Z,100439.01
2023-05-10T16:12:38.717Z,100443.52
2023-05-10T16:15:06.049Z,100448.27
2023-05-10T16:17:33.070Z,100455.80
2023-05-10T16:20:01.257Z,100459.61
2023-05-10T16:22:28.756Z,100465.12
2023-05-10T16:24:56.743Z,100469.47
2023-05-10T16:27:23.265Z,100466.93
2023-05-10T16:29:49.715Z,100471.72
2023-05-10T16:32:16.263Z,100470.84
2023-05-10T16:34:42.862Z,100472.76
2023-05-10T16:37:09.837Z,100472.15
2023-05-10T16:39:36.617Z,100473.92
2023-05-10T16:42:03.162Z,100466.42
2023-05-10T16:44:29.622Z,100467.98
2023-05-10T16:46:56.457Z,100466.34
2023-05-10T16:49:24.496Z,100469.38
2023-05-10T16:51:52.531Z,100471.15
2023-05-10T16:54:19.194Z,100478.95
2023-05-10T16:56:45.829Z,100483.02
2023-05-10T16:59:12.459Z,100487.83
2023-05-10T17:01:39.038Z,100484.95
2023-05-10T17:04:06.021Z,100484.05
2023-05-10T17:06:32.830Z,100483.36
2023-05-10T17:09:00.951Z,100483.16
2023-05-10T17:11:27.657Z,100480.44
2023-05-10T17:13:54.154Z,100485.54
2023-05-10T17:16:21.294Z,100487.35
2023-05-10T17:18:48.231Z,100487.36
2023-05-10T17:21:14.657Z,100484.13
2023-05-10T17:23:41.626Z,100484.02
2023-05-10T17:26:08.385Z,100486.56
2023-05-10T17:28:34.868Z,100490.85
2023-05-10T17:31:02.211Z,100491.52
2023-05-10T17:33:28.704Z,100493.70
2023-05-10T17:35:56.389Z,100496.27
2023-05-10T17:38:23.027Z,100501.54
2023-05-10T17:40:49.517Z,100497.64
2023-05-10T17:43:16.163Z,100501.31
2023-05-10T17:45:44.081Z,100501.13
2023-05-10T17:48:11.464Z,100502.54
2023-05-10T17:50:38.301Z,100504.89
2023-05-10T17:53:04.909Z,100505.35
2023-05-10T17:55:33.393Z,100509.81
2023-05-10T17:58:00.031Z,100511.69
2023-05-10T18:00:26.645Z,100512.59
2023-05-10T18:02:53.187Z,100513.86
2023-05-10T18:05:20.080Z,100515.75
2023-05-10T18:07:47.166Z,100513.67
2023-05-10T18:10:13.663Z,100513.39
2023-05-10T18:12:40.696Z,100515.45
2023-05-10T18:15:07.620Z,100515.66
2023-05-10T18:17:35.005Z,100521.01
2023-05-10T18:20:02.197Z,100520.89
2023-05-10T18:22:28.931Z,100526.77
2023-05-10T18:24:55.426Z,100527.75
2023-05-10T18:27:21.958Z,100535.11
2023-05-10T18:29:48.676Z,100537.87
2023-05-10T18:32:15.182Z,100539.62
2023-05-10T18:34:41.754Z,100543.49
2023-05-10T18:37:09.581Z,100540.85
2023-05-10T18:39:37.240Z,100545.42
2023-05-10T18:42:05.227Z,100546.00
2023-05-10T18:44:32.114Z,100546.98
2023-05-10T18:46:59.315Z,100549.02
2023-05-10T18:49:27.428Z,100546.76
2023-05-10T18:51:53.973Z,100545.29
2023-05-10T18:54:20.685Z,100548.77
2023-05-10T18:56:48.682Z,100550.80
2023-05-10T18:59:15.626Z,100550.76
2023-05-10T19:01:42.388Z,100554.64
2023-05-10T19:04:09.295Z,100558.83
2023-05-10T19:06:36.206Z,100561.55
2023-05-10T19:09:03.560Z,100566.68
2023-05-10T19:11:32.185Z,100564.05
2023-05-10T19:13:58.719Z,100566.52
2023-05-10T19:16:27.515Z,100569.14
2023-05-10T19:18:55.259Z,100571.88
2023-05-10T19:21:24.196Z,100574.92
2023-05-10T19:23:51.261Z,100574.09
2023-05-10T19:26:18.547Z,100575.21
2023-05-10T19:28:45.293Z,100576.97
2023-05-10T19:31:12.331Z,100576.89
2023-05-10T19:33:38.804Z,100578.27
2023-05-10T19:36:05.802Z,100582.30
2023-05-10T19:38:34.042Z,100584.41
2023-05-10T19:41:00.639Z,100584.03
2023-05-10T19:43:28.828Z,100585.02
2023-05-10T19:45:58.799Z,100586.01
2023-05-10T19:48:25.817Z,100585.55
2023-05-10T19:50:53.313Z,100590.88
2023-05-10T19:53:19.974Z,100593.70
2023-05-10T19:55:46.423Z,100592.95
2023-05-10T19:58:13.302Z,100593.55
2023-05-10T20:00:39.744Z,100596.01
2023-05-10T20:21:46.597Z,100602.65
2023-05-10T20:24:13.023Z,100603.67
2023-05-10T20:26:39.394Z,100600.52
2023-05-10T20:29:05.856Z,100601.83
2023-05-10T20:31:32.276Z,100604.46
2023-05-10T20:33:58.792Z,100604.71
2023-05-10T20:36:25.237Z,100607.63
2023-05-10T20:38:51.799Z,100608.66
2023-05-10T20:41:18.253Z,100605.35
2023-05-10T20:43:44.678Z,100607.33
2023-05-10T20:46:11.545Z,100607.56
2023-05-10T20:48:38.003Z,100607.05
2023-05-10T20:51:04.584Z,100606.84
2023-05-10T20:53:31.047Z,100607.27
2023-05-10T20:55:57.432Z,100607.04
2023-05-10T20:58:23.890Z,100606.60
2023-05-10T21:00:50.433Z,100604.52
2023-05-10T21:03:16.869Z,100604.32
2023-05-10T21:05:43.261Z,100606.84
2023-05-10T21:08:09.665Z,100609.84
2023-05-10T21:10:36.123Z,100604.80
2023-05-10T21:13:02.548Z,100604.58
2023-05-10T21:15:29.111Z,100605.20
2023-05-10T21:17:55.651Z,100604.33
2023-05-10T21:20:23.473Z,100603.21
2023-05-10T21:22:49.933Z,100603.07
2023-05-10T21:25:17.249Z,100604.39
2023-05-10T21:27:43.726Z,100605.84
2023-05-10T21:30:10.531Z,100605.12
2023-05-10T21:32:37.195Z,100603.00
2023-05-10T21:35:04.383Z,100600.73
2023-05-10T21:37:30.974Z,100599.75
2023-05-10T21:39:57.501Z,100596.27
2023-05-10T21:42:24.018Z,100598.92
2023-05-10T21:44:50.449Z,100602.65
2023-05-10T21:47:17.294Z,100601.66
2023-05-10T21:49:43.747Z,100601.41
2023-05-10T21:52:10.135Z,100600.82
2023-05-10T21:54:37.311Z,100599.73
2023-05-10T21:57:03.873Z,100608.70
2023-05-10T21:59:30.300Z,100607.16
2023-05-10T22:01:56.802Z,100607.27
2023-05-10T22:04:23.678Z,100608.54
2023-05-10T22:06:50.480Z,100603.49
2023-05-10T22:09:18.777Z,100606.30
2023-05-10T22:11:47.061Z,100609.13
2023-05-10T22:14:13.457Z,100607.10
2023-05-10T22:16:39.948Z,100608.80
2023-05-10T22:19:06.614Z,100607.81
2023-05-10T22:21:33.189Z,100608.63
2023-05-10T22:23:59.868Z,100608.36
2023-05-10T22:26:27.894Z,100603.77
2023-05-10T22:28:54.396Z,100608.52
2023-05-10T22:31:21.462Z,100607.31
2023-05-10T22:33:47.960Z,100610.09
2023-05-10T22:36:15.190Z,100611.23
2023-05-10T22:38:41.605Z,100610.98
2023-05-10T22:41:08.097Z,100612.77
2023-05-10T22:43:34.612Z,100611.18
2023-05-10T22:46:01.123Z,100612.17
2023-05-10T22:48:28.551Z,100612.75
2023-05-10T22:50:55.034Z,100615.21
2023-05-10T22:53:21.498Z,100621.73
2023-05-10T22:55:48.155Z,100619.79
2023-05-10T22:58:15.683Z,100624.88
2023-05-10T23:00:42.106Z,100627.33
2023-05-10T23:03:08.637Z,100626.73
2023-05-10T23:05:35.221Z,100628.23
2023-05-10T23:08:01.686Z,100631.16
2023-05-10T23:10:28.146Z,100635.63
2023-05-10T23:12:55.977Z,100635.67
2023-05-10T23:15:22.591Z,100638.98
2023-05-10T23:17:49.142Z,100637.55
2023-05-10T23:20:15.892Z,100640.27
2023-05-10T23:22:42.568Z,100641.27
2023-05-10T23:25:09.525Z,100641.64
2023-05-10T23:27:35.896Z,100642.03
2023-05-10T23:30:03.348Z,100642.29
2023-05-10T23:32:29.811Z,100637.16
2023-05-10T23:34:56.558Z,100641.04
2023-05-10T23:37:23.050Z,100640.38
2023-05-10T23:39:49.544Z,100633.94
2023-05-10T23:42:16.525Z,100637.20
2023-05-10T23:44:42.928Z,100641.41
2023-05-10T23:47:09.494Z,100637.89
2023-05-10T23:49:36.365Z,100636.28
2023-05-10T23:52:02.767Z,100635.25
2023-05-10T23:54:29.338Z,100637.02
2023-05-10T23:56:55.869Z,100639.10
2023-05-10T23:59:22.264Z,100640.00
